createdAt,value
2018-05-23T00:00:13.898Z,99.90
2018-05-23T00:02:42.107Z,99.90
2018-05-23T00:05:10.848Z,99.90
2018-05-23T00:07:39.039Z,99.90
2018-05-23T00:10:07.347Z,99.90
2018-05-23T00:12:35.579Z,99.90
2018-05-23T00:15:05.238Z,99.90
2018-05-23T00:17:33.445Z,99.90
2018-05-23T00:20:01.688Z,99.90
2018-05-23T00:22:30.865Z,99.90
2018-05-23T00:24:59.214Z,99.90
2018-05-23T00:27:27.477Z,99.90
2018-05-23T00:29:55.662Z,99.90
2018-05-23T00:32:23.941Z,99.90
2018-05-23T00:34:53.020Z,99.90
2018-05-23T00:37:21.234Z,99.90
2018-05-23T00:39:49.469Z,99.90
2018-05-23T00:42:17.661Z,99.90
2018-05-23T00:44:45.858Z,99.90
2018-05-23T00:47:14.149Z,99.90
2018-05-23T00:49:43.402Z,99.90
2018-05-23T00:52:11.594Z,99.90
2018-05-23T00:54:52.337Z,99.90
2018-05-23T00:57:20.580Z,99.90
2018-05-23T00:59:48.795Z,99.90
2018-05-23T01:02:17.122Z,99.90
2018-05-23T01:04:46.114Z,99.90
2018-05-23T01:07:15.083Z,99.90
2018-05-23T01:09:43.647Z,99.90
2018-05-23T01:12:11.884Z,99.90
2018-05-23T01:14:40.115Z,99.90
2018-05-23T01:17:08.392Z,99.90
2018-05-23T01:19:36.591Z,99.90
2018-05-23T01:22:05.612Z,99.90
2018-05-23T01:24:33.819Z,99.90
2018-05-23T01:27:02.086Z,99.90
2018-05-23T01:29:30.327Z,99.90
2018-05-23T01:31:58.547Z,99.90
2018-05-23T01:34:26.756Z,99.90
2018-05-23T01:36:55.015Z,99.90
2018-05-23T01:39:23.275Z,99.90
2018-05-23T01:41:51.563Z,99.90
2018-05-23T01:44:21.127Z,99.90
2018-05-23T01:46:49.553Z,99.90
2018-05-23T01:49:26.515Z,99.90
2018-05-23T01:51:54.706Z,99.90
2018-05-23T01:54:22.916Z,99.90
2018-05-23T01:56:52.353Z,99.90
2018-05-23T01:59:21.312Z,99.90
2018-05-23T02:01:50.275Z,99.90
2018-05-23T02:04:18.531Z,99.90
2018-05-23T02:06:46.732Z,99.90
2018-05-23T02:09:14.982Z,99.90
2018-05-23T02:11:43.246Z,99.90
2018-05-23T02:14:11.534Z,99.90
2018-05-23T02:16:40.027Z,99.90
2018-05-23T02:19:08.311Z,99.90
2018-05-23T02:21:36.516Z,99.90
2018-05-23T02:24:05.527Z,99.90
2018-05-23T02:26:33.722Z,99.90
2018-05-23T02:29:01.927Z,99.90
2018-05-23T02:31:30.220Z,99.90
2018-05-23T02:33:58.588Z,99.90
2018-05-23T02:36:26.931Z,99.90
2018-05-23T02:38:55.150Z,99.90
2018-05-23T02:41:23.380Z,99.90
2018-05-23T02:43:51.615Z,99.90
2018-05-23T02:46:21.142Z,99.90
2018-05-23T02:48:49.367Z,99.90
2018-05-23T02:51:17.612Z,99.90
2018-05-23T02:53:46.231Z,99.90
2018-05-23T02:56:14.553Z,99.90
2018-05-23T02:58:42.747Z,99.90
2018-05-23T03:01:10.946Z,99.90
2018-05-23T03:03:39.303Z,99.90
2018-05-23T03:06:07.598Z,99.90
2018-05-23T03:08:35.804Z,99.90
2018-05-23T03:11:05.628Z,99.90
2018-05-23T03:13:34.630Z,99.90
2018-05-23T03:16:03.706Z,99.90
2018-05-23T03:18:31.932Z,99.90
2018-05-23T03:21:00.212Z,99.90
2018-05-23T03:23:28.623Z,99.90
2018-05-23T03:25:56.923Z,99.90
2018-05-23T03:28:25.370Z,99.90
2018-05-23T03:30:53.738Z,99.90
2018-05-23T03:33:22.035Z,99.90
2018-05-23T03:35:50.296Z,99.90
2018-05-23T03:38:18.498Z,99.90
2018-05-23T03:40:46.726Z,99.90
2018-05-23T03:43:15.082Z,99.90
2018-05-23T03:45:44.655Z,99.90
2018-05-23T03:48:12.888Z,99.90
2018-05-23T03:50:41.495Z,99.90
2018-05-23T03:53:09.703Z,99.90
2018-05-23T03:55:37.920Z,99.90
2018-05-23T03:58:06.134Z,99.90
2018-05-23T04:00:46.197Z,99.90
2018-05-23T04:03:26.242Z,99.90
2018-05-23T04:08:55.943Z,99.90
2018-05-23T04:11:24.142Z,99.90
2018-05-23T04:13:52.455Z,99.90
2018-05-23T04:16:20.792Z,99.90
2018-05-23T04:18:49.887Z,99.90
2018-05-23T04:21:18.893Z,99.90
2018-05-23T04:23:47.087Z,99.90
2018-05-23T04:26:16.670Z,99.90
2018-05-23T04:28:44.899Z,99.90
2018-05-23T04:31:13.211Z,99.90
2018-05-23T04:33:42.298Z,99.90
2018-05-23T04:36:11.420Z,99.90
2018-05-23T04:38:40.626Z,99.90
2018-05-23T04:41:08.879Z,99.90
2018-05-23T04:43:38.395Z,99.90
2018-05-23T04:46:06.588Z,99.90
2018-05-23T04:48:34.824Z,99.90
2018-05-23T04:51:03.921Z,99.90
2018-05-23T04:53:32.955Z,99.90
2018-05-23T04:56:01.224Z,99.90
2018-05-23T04:58:29.526Z,99.90
2018-05-23T05:00:57.947Z,99.90
2018-05-23T05:03:26.242Z,99.90
2018-05-23T05:05:54.451Z,99.90
2018-05-23T05:08:22.686Z,99.90
2018-05-23T05:10:51.723Z,99.90
2018-05-23T05:13:19.926Z,99.90
2018-05-23T05:15:48.342Z,99.90
2018-05-23T05:18:16.631Z,99.90
2018-05-23T05:20:44.926Z,99.90
2018-05-23T05:23:13.555Z,99.90
2018-05-23T05:25:41.905Z,99.90
2018-05-23T05:28:10.162Z,99.90
2018-05-23T05:30:38.474Z,99.90
2018-05-23T05:33:06.680Z,99.90
2018-05-23T05:35:35.707Z,99.90
2018-05-23T05:38:03.936Z,99.90
2018-05-23T05:40:32.874Z,99.90
2018-05-23T05:43:01.134Z,99.90
2018-05-23T05:45:29.370Z,99.90
2018-05-23T05:47:57.578Z,99.90
2018-05-23T05:50:26.530Z,99.90
2018-05-23T05:52:54.824Z,99.90
2018-05-23T05:55:23.999Z,99.90
2018-05-23T05:57:52.257Z,99.90
2018-05-23T06:00:20.491Z,99.90
2018-05-23T06:02:49.563Z,99.90
2018-05-23T06:05:18.899Z,99.90
2018-05-23T06:07:47.104Z,99.90
2018-05-23T06:10:15.302Z,99.90
2018-05-23T06:12:43.564Z,99.90
2018-05-23T06:15:11.850Z,99.90
2018-05-23T06:17:40.052Z,99.90
2018-05-23T06:20:09.042Z,99.90
2018-05-23T06:22:38.035Z,99.90
2018-05-23T06:25:07.149Z,99.90
2018-05-23T06:27:36.115Z,99.90
2018-05-23T06:30:04.334Z,99.90
2018-05-23T06:32:32.567Z,99.90
2018-05-23T06:35:00.942Z,99.90
2018-05-23T06:37:29.186Z,99.90
2018-05-23T06:39:57.422Z,99.90
2018-05-23T06:42:26.454Z,99.90
2018-05-23T06:44:54.777Z,99.90
2018-05-23T06:47:23.876Z,99.90
2018-05-23T06:49:52.225Z,99.90
2018-05-23T06:52:20.442Z,98.40
2018-05-23T06:54:49.433Z,96.60
2018-05-23T06:57:18.669Z,97.40
2018-05-23T06:59:46.868Z,97.30
2018-05-23T07:02:15.182Z,98.30
2018-05-23T07:04:44.634Z,98.80
2018-05-23T07:07:13.214Z,98.70
2018-05-23T07:09:41.447Z,97.00
2018-05-23T07:12:09.717Z,95.40
2018-05-23T07:14:37.931Z,93.40
2018-05-23T07:17:06.171Z,91.50
2018-05-23T07:19:34.366Z,91.40
2018-05-23T07:22:03.323Z,89.10
2018-05-23T07:24:32.058Z,89.00
2018-05-23T07:27:00.254Z,89.30
2018-05-23T07:29:28.546Z,88.50
2018-05-23T07:31:56.743Z,88.20
2018-05-23T07:34:24.974Z,89.30
2018-05-23T07:36:53.451Z,91.50
2018-05-23T07:39:21.666Z,93.20
2018-05-23T07:41:49.926Z,93.90
2018-05-23T07:44:19.973Z,94.50
2018-05-23T07:46:48.185Z,95.90
2018-05-23T07:49:17.420Z,96.40
2018-05-23T07:51:45.683Z,96.40
2018-05-23T07:54:13.867Z,96.30
2018-05-23T07:56:42.193Z,95.80
2018-05-23T07:59:10.306Z,94.90
2018-05-23T08:01:38.947Z,95.00
2018-05-23T08:04:07.919Z,94.50
2018-05-23T08:06:36.178Z,94.50
2018-05-23T08:09:05.291Z,93.50
2018-05-23T08:11:33.518Z,92.50
2018-05-23T08:14:01.738Z,91.60
2018-05-23T08:16:29.975Z,90.30
2018-05-23T08:18:58.159Z,91.50
2018-05-23T08:21:26.710Z,92.30
2018-05-23T08:23:55.718Z,92.00
2018-05-23T08:26:25.105Z,92.00
2018-05-23T08:28:54.426Z,92.10
2018-05-23T08:31:22.666Z,92.10
2018-05-23T08:33:51.665Z,90.60
2018-05-23T08:36:19.895Z,90.50
2018-05-23T08:38:48.906Z,85.60
2018-05-23T08:41:17.271Z,84.90
2018-05-23T08:43:45.535Z,81.80
2018-05-23T08:46:13.983Z,83.60
2018-05-23T08:48:42.258Z,88.60
2018-05-23T08:51:11.258Z,91.90
2018-05-23T08:53:39.463Z,91.90
2018-05-23T08:56:07.647Z,92.20
2018-05-23T08:58:36.031Z,93.00
2018-05-23T09:01:04.227Z,92.80
2018-05-23T09:03:32.507Z,93.90
2018-05-23T09:06:00.818Z,93.40
2018-05-23T09:08:29.003Z,92.50
2018-05-23T09:10:57.270Z,92.30
2018-05-23T09:13:25.482Z,90.60
2018-05-23T09:15:53.718Z,91.90
2018-05-23T09:18:22.127Z,91.50
2018-05-23T09:20:50.355Z,90.90
2018-05-23T09:23:19.466Z,92.30
2018-05-23T09:25:47.724Z,92.30
2018-05-23T09:28:16.675Z,91.00
2018-05-23T09:30:44.907Z,91.00
2018-05-23T09:33:13.099Z,91.30
2018-05-23T09:35:41.794Z,91.70
2018-05-23T09:38:10.823Z,92.50
2018-05-23T09:40:39.023Z,92.00
2018-05-23T09:43:08.077Z,92.70
2018-05-23T09:45:36.342Z,92.70
2018-05-23T09:48:04.547Z,94.00
2018-05-23T09:50:33.603Z,93.80
2018-05-23T09:53:01.800Z,93.80
2018-05-23T09:55:30.007Z,95.10
2018-05-23T09:57:59.114Z,94.90
2018-05-23T10:00:28.140Z,94.40
2018-05-23T10:02:56.394Z,94.40
2018-05-23T10:05:24.627Z,95.60
2018-05-23T10:07:53.051Z,95.50
2018-05-23T10:10:21.278Z,94.90
2018-05-23T10:12:49.489Z,96.20
2018-05-23T10:15:19.007Z,94.70
2018-05-23T10:17:47.314Z,94.00
2018-05-23T10:20:15.607Z,95.20
2018-05-23T10:22:43.842Z,94.70
2018-05-23T10:25:12.091Z,94.80
2018-05-23T10:30:17.345Z,95.50
2018-05-23T10:32:45.686Z,95.60
2018-05-23T10:35:14.698Z,96.30
2018-05-23T10:37:44.128Z,95.60
2018-05-23T10:40:12.395Z,95.60
2018-05-23T10:42:40.589Z,97.70
2018-05-23T10:45:08.856Z,95.90
2018-05-23T10:47:37.151Z,96.30
2018-05-23T10:50:05.401Z,96.80
2018-05-23T10:52:34.315Z,96.20
2018-05-23T10:55:02.608Z,96.80
2018-05-23T10:57:30.847Z,96.60
2018-05-23T11:00:00.316Z,96.20
2018-05-23T11:02:28.509Z,96.80
2018-05-23T11:04:57.479Z,97.10
2018-05-23T11:07:25.783Z,96.90
2018-05-23T11:12:31.750Z,97.00
2018-05-23T11:15:00.001Z,97.20
2018-05-23T11:17:29.522Z,95.40
2018-05-23T11:19:57.738Z,95.10
2018-05-23T11:22:26.003Z,96.80
2018-05-23T11:24:55.067Z,95.00
2018-05-23T11:27:23.310Z,95.00
2018-05-23T11:29:51.556Z,95.30
2018-05-23T11:32:20.583Z,96.50
2018-05-23T11:34:48.854Z,96.10
2018-05-23T11:37:17.087Z,96.50
2018-05-23T11:39:46.095Z,94.50
2018-05-23T11:42:15.063Z,94.60
2018-05-23T11:44:43.323Z,94.60
2018-05-23T11:47:11.568Z,94.70
2018-05-23T11:49:39.815Z,94.60
2018-05-23T11:52:08.903Z,94.40
2018-05-23T11:54:38.543Z,94.30
2018-05-23T11:57:06.749Z,95.20
2018-05-23T11:59:34.925Z,94.70
2018-05-23T12:02:03.239Z,93.90
2018-05-23T12:04:32.207Z,94.60
2018-05-23T12:07:00.431Z,94.60
2018-05-23T12:09:29.220Z,93.60
2018-05-23T12:11:57.435Z,93.30
2018-05-23T12:14:25.634Z,94.20
2018-05-23T12:16:53.866Z,93.40
2018-05-23T12:19:22.642Z,93.10
2018-05-23T12:21:50.919Z,93.20
2018-05-23T12:24:19.167Z,94.40
2018-05-23T12:26:48.207Z,94.10
2018-05-23T12:29:16.420Z,94.10
2018-05-23T12:31:44.626Z,93.10
2018-05-23T12:34:12.830Z,94.10
2018-05-23T12:36:41.103Z,92.50
2018-05-23T12:39:10.299Z,91.70
2018-05-23T12:41:38.578Z,91.80
2018-05-23T12:44:06.863Z,91.90
2018-05-23T12:46:35.307Z,91.40
2018-05-23T12:49:03.488Z,90.80
2018-05-23T12:51:31.683Z,92.50
2018-05-23T12:54:00.006Z,92.70
2018-05-23T12:56:29.061Z,92.30
2018-05-23T12:58:57.279Z,92.30
2018-05-23T13:01:26.310Z,91.10
2018-05-23T13:03:54.615Z,91.00
2018-05-23T13:06:22.830Z,90.50
2018-05-23T13:08:51.816Z,90.60
2018-05-23T13:11:20.066Z,90.60
2018-05-23T13:13:48.278Z,90.40
2018-05-23T13:16:17.318Z,90.10
2018-05-23T13:18:46.291Z,90.60
2018-05-23T13:21:14.486Z,90.50
2018-05-23T13:23:42.778Z,91.10
2018-05-23T13:26:10.971Z,87.70
2018-05-23T13:28:39.159Z,82.80
2018-05-23T13:31:08.143Z,81.40
2018-05-23T13:33:36.342Z,81.40
2018-05-23T13:36:05.395Z,83.90
2018-05-23T13:38:33.590Z,83.80
2018-05-23T13:41:01.918Z,85.70
2018-05-23T13:43:30.195Z,89.00
2018-05-23T13:45:58.425Z,90.80
2018-05-23T13:48:26.777Z,92.10
2018-05-23T13:50:54.990Z,90.90
2018-05-23T13:53:24.001Z,89.60
2018-05-23T13:55:52.289Z,89.50
2018-05-23T13:58:20.517Z,90.90
2018-05-23T14:00:48.719Z,93.90
2018-05-23T14:03:16.962Z,94.30
2018-05-23T14:05:45.212Z,93.90
2018-05-23T14:08:13.447Z,94.80
2018-05-23T14:10:41.679Z,95.00
2018-05-23T14:13:10.373Z,95.80
2018-05-23T14:15:38.612Z,96.70
2018-05-23T14:18:07.571Z,96.80
2018-05-23T14:20:35.771Z,96.70
2018-05-23T14:23:03.971Z,96.50
2018-05-23T14:25:32.286Z,96.40
2018-05-23T14:28:01.251Z,97.30
2018-05-23T14:30:29.459Z,97.30
2018-05-23T14:32:58.465Z,97.00
2018-05-23T14:35:26.694Z,96.90
2018-05-23T14:37:54.953Z,97.10
2018-05-23T14:40:23.234Z,98.20
2018-05-23T14:42:51.505Z,99.90
2018-05-23T14:45:19.723Z,99.90
2018-05-23T14:47:48.682Z,99.90
2018-05-23T14:50:16.883Z,99.90
2018-05-23T14:52:45.074Z,99.90
2018-05-23T14:55:14.058Z,99.90
2018-05-23T14:57:43.054Z,99.90
2018-05-23T15:00:12.290Z,99.90
2018-05-23T15:02:40.496Z,99.90
2018-05-23T15:05:08.690Z,99.90
2018-05-23T15:07:36.978Z,99.90
2018-05-23T15:10:05.958Z,99.90
2018-05-23T15:12:34.154Z,99.90
2018-05-23T15:15:03.127Z,99.90
2018-05-23T15:17:31.323Z,99.90
2018-05-23T15:20:01.668Z,99.90
2018-05-23T15:22:29.891Z,99.90
2018-05-23T15:24:58.086Z,99.90
2018-05-23T15:27:27.167Z,99.90
2018-05-23T15:29:55.359Z,99.90
2018-05-23T15:32:24.342Z,99.90
2018-05-23T15:34:53.390Z,99.90
2018-05-23T15:37:21.590Z,99.90
2018-05-23T15:39:50.727Z,99.90
2018-05-23T15:44:55.268Z,99.90
2018-05-23T15:47:23.459Z,99.90
2018-05-23T15:49:51.675Z,99.90
2018-05-23T15:52:19.942Z,99.90
2018-05-23T15:54:48.178Z,99.90
2018-05-23T15:57:17.150Z,99.90
2018-05-23T15:59:46.394Z,99.90
2018-05-23T16:02:14.606Z,99.90
2018-05-23T16:04:42.842Z,99.90
2018-05-23T16:07:11.052Z,99.90
2018-05-23T16:09:39.258Z,99.90
2018-05-23T16:12:08.246Z,99.90
2018-05-23T16:14:37.308Z,99.90
2018-05-23T16:17:05.583Z,99.90
2018-05-23T16:19:33.777Z,99.90
2018-05-23T16:22:02.051Z,99.90
2018-05-23T16:24:30.284Z,99.90
2018-05-23T16:26:58.492Z,99.90
2018-05-23T16:29:26.729Z,99.90
2018-05-23T16:31:55.027Z,99.90
2018-05-23T16:34:23.351Z,99.90
2018-05-23T16:36:52.443Z,99.90
2018-05-23T16:39:22.306Z,99.90
2018-05-23T16:41:50.963Z,99.90
2018-05-23T16:44:19.386Z,99.90
2018-05-23T16:46:48.311Z,99.90
2018-05-23T16:49:17.273Z,99.90
2018-05-23T16:51:45.515Z,99.90
2018-05-23T16:54:13.706Z,99.90
2018-05-23T16:56:43.397Z,99.90
2018-05-23T16:59:11.588Z,99.90
2018-05-23T17:01:39.854Z,99.90
2018-05-23T17:04:08.050Z,99.90
2018-05-23T17:06:36.271Z,99.90
2018-05-23T17:09:06.159Z,99.90
2018-05-23T17:11:34.399Z,99.90
2018-05-23T17:14:02.591Z,99.90
2018-05-23T17:16:30.922Z,99.90
2018-05-23T17:18:59.218Z,99.90
2018-05-23T17:21:27.497Z,99.90
2018-05-23T17:23:55.787Z,99.90
2018-05-23T17:26:24.027Z,99.90
2018-05-23T17:28:52.982Z,99.90
2018-05-23T17:31:21.258Z,99.90
2018-05-23T17:33:49.485Z,99.90
2018-05-23T17:36:18.667Z,99.90
2018-05-23T17:38:46.862Z,99.90
2018-05-23T17:41:15.074Z,99.90
2018-05-23T17:43:43.291Z,99.90
2018-05-23T17:46:11.480Z,99.90
2018-05-23T17:48:39.691Z,99.90
2018-05-23T17:51:07.915Z,99.90
2018-05-23T17:53:36.259Z,99.90
2018-05-23T17:56:04.430Z,99.90
2018-05-23T17:58:33.047Z,99.90
2018-05-23T18:01:02.036Z,99.90
2018-05-23T18:03:31.086Z,99.90
2018-05-23T18:05:59.422Z,99.90
2018-05-23T18:08:27.571Z,99.90
2018-05-23T18:10:55.759Z,99.90
2018-05-23T18:13:24.716Z,99.90
2018-05-23T18:15:53.206Z,99.90
2018-05-23T18:18:21.470Z,99.90
2018-05-23T18:20:49.661Z,99.90
2018-05-23T18:23:20.986Z,99.90
2018-05-23T18:25:49.234Z,99.90
2018-05-23T18:28:17.447Z,99.90
2018-05-23T18:30:45.683Z,99.90
2018-05-23T18:33:14.053Z,99.90
2018-05-23T18:35:43.023Z,99.90
2018-05-23T18:38:11.302Z,99.90
2018-05-23T18:40:39.622Z,99.90
2018-05-23T18:43:08.998Z,99.90
2018-05-23T18:45:37.950Z,99.90
2018-05-23T18:48:06.191Z,99.90
2018-05-23T18:50:34.398Z,99.90
2018-05-23T18:53:03.051Z,99.90
2018-05-23T18:55:31.322Z,99.90
2018-05-23T18:58:00.306Z,99.90
2018-05-23T19:00:29.299Z,99.90
2018-05-23T19:02:57.722Z,99.90
2018-05-23T19:05:26.073Z,99.90
2018-05-23T19:07:55.023Z,99.90
2018-05-23T19:10:24.084Z,99.90
2018-05-23T19:12:52.278Z,99.90
2018-05-23T19:15:20.513Z,99.90
2018-05-23T19:17:49.514Z,99.90
2018-05-23T19:20:17.784Z,99.90
2018-05-23T19:22:46.161Z,99.90
2018-05-23T19:25:14.401Z,99.90
2018-05-23T19:27:43.435Z,99.90
2018-05-23T19:30:11.680Z,99.90
2018-05-23T19:32:40.831Z,99.90
2018-05-23T19:35:09.101Z,99.90
2018-05-23T19:37:37.611Z,99.90
2018-05-23T19:40:05.883Z,99.90
2018-05-23T19:42:34.155Z,99.90
2018-05-23T19:45:02.440Z,99.90
2018-05-23T19:47:30.785Z,99.90
2018-05-23T19:49:58.951Z,99.90
2018-05-23T19:52:27.186Z,99.90
2018-05-23T19:54:56.156Z,99.90
2018-05-23T19:57:24.411Z,99.90
2018-05-23T19:59:52.774Z,99.90
2018-05-23T20:02:20.987Z,99.90
2018-05-23T20:04:49.226Z,99.90
2018-05-23T20:07:17.494Z,99.90
2018-05-23T20:09:45.763Z,99.90
2018-05-23T20:12:14.802Z,99.90
2018-05-23T20:14:43.126Z,99.90
2018-05-23T20:17:11.636Z,99.90
2018-05-23T20:19:39.870Z,99.90
2018-05-23T20:22:08.167Z,99.90
2018-05-23T20:24:36.510Z,99.90
2018-05-23T20:27:04.986Z,99.90
2018-05-23T20:29:33.243Z,99.90
2018-05-23T20:32:01.440Z,99.90
2018-05-23T20:34:29.725Z,99.90
2018-05-23T20:36:57.918Z,99.90
2018-05-23T20:39:26.162Z,99.90
2018-05-23T20:41:54.367Z,99.90
2018-05-23T20:44:22.887Z,99.90
2018-05-23T20:46:51.097Z,99.90
2018-05-23T20:49:20.105Z,99.90
2018-05-23T20:51:48.391Z,99.90
2018-05-23T20:54:16.782Z,99.90
2018-05-23T20:56:45.020Z,99.90
2018-05-23T20:59:13.211Z,99.90
2018-05-23T21:01:42.580Z,99.90
2018-05-23T21:04:10.796Z,99.90
2018-05-23T21:06:38.990Z,99.90
2018-05-23T21:09:07.295Z,99.90
2018-05-23T21:11:36.996Z,99.90
2018-05-23T21:14:05.394Z,99.90
2018-05-23T21:16:33.737Z,99.90
2018-05-23T21:19:01.999Z,99.90
2018-05-23T21:21:30.349Z,99.90
2018-05-23T21:23:58.550Z,99.90
2018-05-23T21:26:26.794Z,99.90
2018-05-23T21:28:54.990Z,99.90
2018-05-23T21:31:23.502Z,99.90
2018-05-23T21:33:51.830Z,99.90
2018-05-23T21:36:20.101Z,99.90
2018-05-23T21:38:48.463Z,99.90
2018-05-23T21:41:16.738Z,99.90
2018-05-23T21:43:44.934Z,99.90
2018-05-23T21:46:13.943Z,99.90
2018-05-23T21:48:42.936Z,99.90
2018-05-23T21:51:12.118Z,99.90
2018-05-23T21:53:41.122Z,99.90
2018-05-23T21:56:10.127Z,99.90
2018-05-23T21:58:39.342Z,99.90
2018-05-23T22:01:07.543Z,99.90
2018-05-23T22:03:35.834Z,99.90
2018-05-23T22:06:04.065Z,99.90
2018-05-23T22:08:32.262Z,99.90
2018-05-23T22:11:00.592Z,99.90
2018-05-23T22:13:28.783Z,99.90
2018-05-23T22:15:57.068Z,99.90
2018-05-23T22:18:25.378Z,99.90
2018-05-23T22:20:53.503Z,99.90
2018-05-23T22:23:22.594Z,99.90
2018-05-23T22:25:51.592Z,99.90
2018-05-23T22:28:20.623Z,99.90
2018-05-23T22:30:48.938Z,99.90
2018-05-23T22:33:17.197Z,99.90
2018-05-23T22:35:45.399Z,99.90
2018-05-23T22:38:14.451Z,99.90
2018-05-23T22:40:42.735Z,99.90
2018-05-23T22:43:10.943Z,99.90
2018-05-23T22:45:39.258Z,99.90
2018-05-23T22:48:08.467Z,99.90
2018-05-23T22:50:36.715Z,99.90
2018-05-23T22:53:05.687Z,99.90
2018-05-23T22:55:34.010Z,99.90
2018-05-23T22:58:02.339Z,99.90
2018-05-23T23:00:30.639Z,99.90
2018-05-23T23:02:58.914Z,99.90
2018-05-23T23:05:27.192Z,99.90
2018-05-23T23:07:56.171Z,99.90
2018-05-23T23:10:25.299Z,99.90
2018-05-23T23:12:53.498Z,99.90
2018-05-23T23:15:21.774Z,99.90
2018-05-23T23:17:49.982Z,99.90
2018-05-23T23:20:18.242Z,99.90
2018-05-23T23:22:46.474Z,99.90
2018-05-23T23:25:15.518Z,99.90
2018-05-23T23:27:43.731Z,99.90
2018-05-23T23:30:12.828Z,99.90
2018-05-23T23:32:41.023Z,99.90
2018-05-23T23:35:09.255Z,99.90
2018-05-23T23:37:38.303Z,99.90
2018-05-23T23:40:07.430Z,99.90
2018-05-23T23:42:35.647Z,99.90
2018-05-23T23:45:03.991Z,99.90
2018-05-23T23:47:32.231Z,99.90
2018-05-23T23:50:00.527Z,99.90
2018-05-23T23:52:28.743Z,99.90
2018-05-23T23:54:57.926Z,99.90
2018-05-23T23:57:26.906Z,99.90
2018-05-23T23:59:55.103Z,99.90
